Columbia Highway — 3EQO8 — position and weather

sailwx.info

Track history (hours):
 
Tides and Currents Weather Stations Pressure Air Temp Water Temp Dewpoint Dewpoint Depression Visibility Wind Speed Wind Dir Waves Ship Positions

Columbia Highway

Last reported at 2018-Jun-13 05:56 UTC. Time now 2018-Jun-24 20:15 UTC.
Position N 01°20' E 103°19'.
Warning: this ship's position is 11 days out of date.

Length 199 m; draft 9.5 m.

Type: Cargo ship. MMSI: 371172000.

Date/timePositionNaut miles runAvg speedWind from/ knotsBaromVisibWave heightAir tempDewpointWater temp
2018-Jun-13 05:56N 01°20' E 103°19'716.3
2018-Jun-13 05:30N 01°15' E 103°24'815.3
2018-Jun-13 05:00N 01°13' E 103°31'612.3
2018-Jun-13 04:30N 01°12' E 103°38'4 8.2
2018-Jun-13 04:00N 01°14' E 103°41'5 9.5
2018-Jun-13 03:30N 01°17' E 103°45'0 0.9
2018-Jun-13 03:00N 01°17' E 103°45'0 0.0
2018-Jun-13 02:30N 01°17' E 103°45'0 0.0
2018-Jun-13 02:00N 01°17' E 103°45'0 0.0
2018-Jun-13 01:30N 01°17' E 103°45'0 0.0
2018-Jun-13 00:57N 01°17' E 103°45'0 0.0
2018-Jun-13 00:27N 01°17' E 103°45'0 0.0
2018-Jun-13 00:00N 01°17' E 103°45'0 0.0
2018-Jun-12 23:30N 01°17' E 103°45'0 0.0
2018-Jun-12 22:58N 01°17' E 103°45'0 0.0
2018-Jun-12 22:30N 01°17' E 103°45'0 0.0
2018-Jun-12 22:00N 01°17' E 103°45'0 0.0
2018-Jun-12 21:30N 01°17' E 103°45'0 0.0
2018-Jun-12 21:00N 01°17' E 103°45'0 0.0
2018-Jun-12 20:30N 01°17' E 103°45'0 0.0
2018-Jun-12 20:00N 01°17' E 103°45'0 0.0
2018-Jun-12 19:30N 01°17' E 103°45'0 0.0
2018-Jun-12 19:00N 01°17' E 103°45'0 0.0
2018-Jun-12 18:30N 01°17' E 103°45'0 0.2
2018-Jun-12 18:00N 01°17' E 103°45'2 3.0
2018-Jun-12 17:30N 01°16' E 103°46'3 6.8
2018-Jun-12 17:00N 01°13' E 103°48'4 7.6
2018-Jun-12 16:30N 01°13' E 103°52'3 6.9
2018-Jun-12 16:00N 01°14' E 103°55'2 3.9
2018-Jun-12 15:28N 01°15' E 103°57'4 9.1
2018-Jun-12 15:00N 01°16' E 104°01'510.0
2018-Jun-12 14:30N 01°17' E 104°06'611.5
2018-Jun-12 13:58N 01°18' E 104°12'612.3
2018-Jun-12 13:30N 01°18' E 104°18'713.7
2018-Jun-12 13:00N 01°22' E 104°23'715.2
2018-Jun-12 12:30N 01°27' E 104°29'714.5
2018-Jun-12 11:59N 01°33' E 104°34'  
2018-Jun-03 10:26N 33°41' E 134°48'818.4
2018-Jun-03 10:00N 33°47' E 134°53'918.1
2018-Jun-03 09:31N 33°56' E 134°54'917.9
2018-Jun-03 09:00N 34°05' E 134°54'714.0
2018-Jun-03 08:30N 34°12' E 134°56'510.8
2018-Jun-03 08:00N 34°17' E 134°58'815.7
2018-Jun-03 07:30N 34°25' E 135°00'714.9
2018-Jun-03 07:00N 34°31' E 135°04'3 7.0
2018-Jun-03 06:31N 34°35' E 135°05'816.0
2018-Jun-03 06:00N 34°36' E 134°55'  
Track history (hours):
 
Tides and Currents Weather Stations Pressure Air Temp Water Temp Dewpoint Dewpoint Depression Visibility Wind Speed Wind Dir Waves Ship Positions

Columbia Highway

Last reported at 2018-Jun-13 05:56 UTC. Time now 2018-Jun-24 20:15 UTC.
Position N 01°20' E 103°19'.
Warning: this ship's position is 11 days out of date.

Length 199 m; draft 9.5 m.

Type: Cargo ship. MMSI: 371172000.

Date/timePositionNaut miles runAvg speedWind from/ knotsBaromVisibWave heightAir tempDewpointWater temp
2018-Jun-13 05:56N 01°20' E 103°19'716.3
2018-Jun-13 05:30N 01°15' E 103°24'815.3
2018-Jun-13 05:00N 01°13' E 103°31'612.3
2018-Jun-13 04:30N 01°12' E 103°38'4 8.2
2018-Jun-13 04:00N 01°14' E 103°41'5 9.5
2018-Jun-13 03:30N 01°17' E 103°45'0 0.9
2018-Jun-13 03:00N 01°17' E 103°45'0 0.0
2018-Jun-13 02:30N 01°17' E 103°45'0 0.0
2018-Jun-13 02:00N 01°17' E 103°45'0 0.0
2018-Jun-13 01:30N 01°17' E 103°45'0 0.0
2018-Jun-13 00:57N 01°17' E 103°45'0 0.0
2018-Jun-13 00:27N 01°17' E 103°45'0 0.0
2018-Jun-13 00:00N 01°17' E 103°45'0 0.0
2018-Jun-12 23:30N 01°17' E 103°45'0 0.0
2018-Jun-12 22:58N 01°17' E 103°45'0 0.0
2018-Jun-12 22:30N 01°17' E 103°45'0 0.0
2018-Jun-12 22:00N 01°17' E 103°45'0 0.0
2018-Jun-12 21:30N 01°17' E 103°45'0 0.0
2018-Jun-12 21:00N 01°17' E 103°45'0 0.0
2018-Jun-12 20:30N 01°17' E 103°45'0 0.0
2018-Jun-12 20:00N 01°17' E 103°45'0 0.0
2018-Jun-12 19:30N 01°17' E 103°45'0 0.0
2018-Jun-12 19:00N 01°17' E 103°45'0 0.0
2018-Jun-12 18:30N 01°17' E 103°45'0 0.2
2018-Jun-12 18:00N 01°17' E 103°45'2 3.0
2018-Jun-12 17:30N 01°16' E 103°46'3 6.8
2018-Jun-12 17:00N 01°13' E 103°48'4 7.6
2018-Jun-12 16:30N 01°13' E 103°52'3 6.9
2018-Jun-12 16:00N 01°14' E 103°55'2 3.9
2018-Jun-12 15:28N 01°15' E 103°57'4 9.1
2018-Jun-12 15:00N 01°16' E 104°01'510.0
2018-Jun-12 14:30N 01°17' E 104°06'611.5
2018-Jun-12 13:58N 01°18' E 104°12'612.3
2018-Jun-12 13:30N 01°18' E 104°18'713.7
2018-Jun-12 13:00N 01°22' E 104°23'715.2
2018-Jun-12 12:30N 01°27' E 104°29'714.5
2018-Jun-12 11:59N 01°33' E 104°34'  
2018-Jun-03 10:26N 33°41' E 134°48'818.4
2018-Jun-03 10:00N 33°47' E 134°53'918.1
2018-Jun-03 09:31N 33°56' E 134°54'917.9
2018-Jun-03 09:00N 34°05' E 134°54'714.0
2018-Jun-03 08:30N 34°12' E 134°56'510.8
2018-Jun-03 08:00N 34°17' E 134°58'815.7
2018-Jun-03 07:30N 34°25' E 135°00'714.9
2018-Jun-03 07:00N 34°31' E 135°04'3 7.0
2018-Jun-03 06:31N 34°35' E 135°05'816.0
2018-Jun-03 06:00N 34°36' E 134°55'  

Dump ship's entire track history